CYVP

Details ICAO CYVP (YVP)
Name KUUJJUAQ
Region Canada
Timezone America/Montreal (UTC-5.0)
Plans Departing 37
Arriving 41
Stats Elevation 129 ft / 39 m (AMSL)
Location 58.096945° -68.423333°
Runways 2
Magnetic Variation 22.671° W
Sunrise 2017-12-17 13:17:43 UTC / 2017-12-17 08:17:43 Local
Sunset 2017-12-17 19:44:49 UTC / 2017-12-17 14:44:49 Local
Advertisement - Login to hide

Runways

ID Width Length Bearing (true) Bearing (mag) Surface Threshold Offset Overrun Length
07 150 ft / 46 m 6,002 ft / 1,829 m 43.43° 66.10° Asphalt 0 ft / 0 m 0 ft / 0 m
13 150 ft / 46 m 5,000 ft / 1,524 m 102.88° 125.55° Gravel 0 ft / 0 m 0 ft / 0 m
25 150 ft / 46 m 6,002 ft / 1,829 m 223.45° 246.12° Asphalt 0 ft / 0 m 0 ft / 0 m
31 150 ft / 46 m 5,000 ft / 1,524 m 282.90° 305.57° Gravel 0 ft / 0 m 0 ft / 0 m

Map

Weather


0- 5 10 15 20 25 30 35+ Temperature / ° C

Clouds and Precipitation
Forecast for 2017-12-18 00:00 UTC. Updated an hour ago

Ground ~20,000 ft ~40,000 ft Winds

METAR

CYVP 172000Z 27010KT 15SM FEW020 SCT070 SCT160 M17/M21 A2973 RMK SC1AC4AC1 SC TR AC TR SLP072

TAF

TAF CYVP 171738Z 1718/1806 28015G25KT P6SM BKN025 TEMPO 1718/1806 5SM -SN BKN020 RMK NXT FCST BY 180000Z

Frequencies

Tower 122.20 MHz ARPT RDO
Tower 122.20 MHz MF
Warning: Do not use this data for real-world aviation or navigation. No guarantee of current accuracy is given.